Time;durP1;ratioP1;P1;durP2;ratioP2;P2;SDS_P1;SDS_P2;PMS_P1;PMS_P2;Temp;Humidity;BMP_temperature;BMP_pressure;BME280_temperature;BME280_humidity;BME280_pressure;Samples;Min_cycle;Max_cycle;Signal;HPM_P1;HPM_P2
2022/06/08 00:00:38;;;;;;;10.03;8.97;;;;;;;16.94;100.00;100299.50;5159936;57;1141196;-70
2022/06/08 00:05:45;;;;;;;12.13;9.37;;;;;;;16.98;100.00;100300.31;5159952;57;1142659;-72
2022/06/08 00:10:51;;;;;;;12.07;8.65;;;;;;;17.00;100.00;100296.98;5094285;57;1143038;-72
2022/06/08 00:15:58;;;;;;;13.03;11.40;;;;;;;17.01;100.00;100297.81;5042207;58;1143311;-72
2022/06/08 00:21:06;;;;;;;15.57;11.90;;;;;;;16.98;100.00;100304.82;5139370;57;1145283;-69
2022/06/08 00:26:12;;;;;;;15.97;12.07;;;;;;;16.84;100.00;100299.13;5160242;57;1145379;-69
2022/06/08 00:31:18;;;;;;;16.63;14.80;;;;;;;16.59;100.00;100304.06;5149788;56;1145203;-71
2022/06/08 00:36:23;;;;;;;22.67;15.63;;;;;;;16.49;100.00;100302.88;5037910;58;1145219;-70
2022/06/08 00:41:43;;;;;;;24.60;14.17;;;;;;;16.43;100.00;100298.67;5077557;58;1145275;-70
2022/06/08 00:46:50;;;;;;;34.70;18.90;;;;;;;16.37;100.00;100293.97;5118176;57;1145308;-72
2022/06/08 00:51:57;;;;;;;17.93;13.73;;;;;;;16.22;100.00;100296.91;5125990;57;1145805;-70
2022/06/08 00:57:08;;;;;;;28.97;18.03;;;;;;;16.13;100.00;100298.23;5076169;58;1145579;-70
2022/06/08 01:02:13;;;;;;;22.43;18.70;;;;;;;16.04;100.00;100293.84;5075660;57;1145267;-72
2022/06/08 01:07:22;;;;;;;23.10;17.17;;;;;;;16.06;100.00;100287.84;5078093;57;1145442;-71
2022/06/08 01:12:29;;;;;;;22.00;17.10;;;;;;;16.11;100.00;100288.21;5078035;57;1145252;-70
2022/06/08 01:17:36;;;;;;;32.17;20.37;;;;;;;16.23;100.00;100282.58;5064940;57;1143263;-72
2022/06/08 01:22:42;;;;;;;31.20;20.03;;;;;;;16.32;100.00;100274.45;5102746;57;1143474;-71
2022/06/08 01:28:20;;;;;;;28.27;18.67;;;;;;;16.40;100.00;100273.14;5077987;57;1143102;-69
2022/06/08 01:33:36;;;;;;;20.30;17.33;;;;;;;16.40;100.00;100277.14;4891859;60;1143294;-72
2022/06/08 01:38:47;;;;;;;18.63;15.60;;;;;;;16.33;100.00;100269.46;4823429;59;1143452;-70
2022/06/08 01:44:00;;;;;;;32.43;19.93;;;;;;;16.29;100.00;100270.77;4843251;60;1143323;-70
2022/06/08 01:49:23;;;;;;;;;;;;;;;16.29;100.00;100264.59;4908151;59;1143709;-70
2022/06/08 01:54:50;;;;;;;23.57;16.20;;;;;;;16.33;100.00;100261.45;4986073;59;978491;-68
2022/06/08 02:00:26;;;;;;;22.40;17.60;;;;;;;16.30;100.00;100260.94;4901025;60;1143269;-72
2022/06/08 02:05:38;;;;;;;25.27;18.57;;;;;;;16.30;100.00;100248.92;4741409;62;1145314;-72
2022/06/08 02:11:18;;;;;;;24.18;18.17;;;;;;;16.31;100.00;100250.60;4900496;59;1145220;-72
2022/06/08 02:16:39;;;;;;;21.27;17.47;;;;;;;16.34;100.00;100247.11;5022484;58;1145390;-72
2022/06/08 02:21:54;;;;;;;23.90;17.70;;;;;;;16.33;100.00;100245.44;5132812;56;1145190;-72
2022/06/08 02:27:17;;;;;;;21.07;16.57;;;;;;;16.34;100.00;100243.11;5133546;56;1145232;-70
2022/06/08 02:38:03;;;;;;;25.50;17.23;;;;;;;16.36;100.00;100233.08;5149454;57;1143160;-72
2022/06/08 02:43:19;;;;;;;23.23;17.33;;;;;;;16.32;100.00;100232.26;5149293;57;1143128;-70
2022/06/08 02:48:26;;;;;;;23.13;17.13;;;;;;;16.24;100.00;100232.22;5079691;57;1143333;-69
2022/06/08 02:53:40;;;;;;;23.50;18.00;;;;;;;16.19;100.00;100230.86;5061329;58;1143220;-71
2022/06/08 02:59:08;;;;;;;27.98;19.12;;;;;;;16.14;100.00;100232.37;5147040;57;1142678;-70
2022/06/08 03:04:21;;;;;;;27.53;19.33;;;;;;;16.17;100.00;100237.38;5159099;57;1143359;-69
2022/06/08 03:09:28;;;;;;;24.27;17.87;;;;;;;16.17;100.00;100232.05;5161693;56;1141166;-71
2022/06/08 03:14:34;;;;;;;40.43;22.73;;;;;;;16.14;100.00;100233.70;5182573;57;21217;-70
2022/06/08 03:19:41;;;;;;;33.23;21.20;;;;;;;16.06;100.00;100245.66;5155436;57;1141083;-70
2022/06/08 03:24:47;;;;;;;28.13;19.93;;;;;;;16.01;100.00;100241.33;5066200;57;1145371;-72
2022/06/08 03:29:54;;;;;;;44.07;20.63;;;;;;;16.03;100.00;100248.17;5066056;58;1145178;-71
2022/06/08 03:35:01;;;;;;;44.87;22.90;;;;;;;16.04;100.00;100245.01;5214864;56;1145313;-70
2022/06/08 03:40:09;;;;;;;43.20;19.90;;;;;;;16.05;100.00;100239.48;5218077;56;1145182;-72
2022/06/08 03:45:15;;;;;;;35.00;21.87;;;;;;;16.06;100.00;100252.33;5210306;56;1145450;-72
2022/06/08 03:50:25;;;;;;;43.73;23.00;;;;;;;16.04;100.00;100247.67;5232220;56;1145329;-71
2022/06/08 03:55:34;;;;;;;33.33;20.87;;;;;;;16.12;100.00;100251.70;5149616;57;1145453;-70
2022/06/08 04:00:41;;;;;;;28.43;20.00;;;;;;;16.18;100.00;100250.56;5133026;57;1145261;-72
2022/06/08 04:05:47;;;;;;;29.97;19.33;;;;;;;16.22;100.00;100261.73;5150513;57;1145240;-71
2022/06/08 04:10:55;;;;;;;27.43;19.83;;;;;;;16.24;100.00;100262.41;5163351;56;1145274;-72
2022/06/08 04:16:03;;;;;;;30.63;22.00;;;;;;;16.28;100.00;100258.92;5162002;57;1145483;-69
2022/06/08 04:21:14;;;;;;;30.90;21.53;;;;;;;16.35;100.00;100258.59;5140081;56;1145294;-70
2022/06/08 04:26:22;;;;;;;29.90;20.97;;;;;;;16.45;100.00;100263.31;5132956;56;1145256;-71
2022/06/08 04:31:33;;;;;;;35.40;22.47;;;;;;;16.51;100.00;100263.48;5158492;56;1145205;-69
2022/06/08 04:36:41;;;;;;;29.83;21.87;;;;;;;16.57;100.00;100262.00;5081163;57;1145243;-71
2022/06/08 04:41:47;;;;;;;34.03;23.10;;;;;;;16.63;100.00;100261.89;5081249;57;1145398;-69
2022/06/08 04:46:54;;;;;;;27.67;20.50;;;;;;;16.67;100.00;100257.87;5162162;56;1145243;-71
2022/06/08 04:52:01;;;;;;;30.60;21.00;;;;;;;16.66;100.00;100257.53;5165146;56;1145305;-69
2022/06/08 04:57:08;;;;;;;30.87;21.00;;;;;;;16.64;100.00;100255.55;5165154;56;1145220;-71
2022/06/08 05:02:42;;;;;;;31.57;22.57;;;;;;;16.61;100.00;100258.52;5165196;56;1145331;-71
2022/06/08 05:07:22;;;;;;;32.97;21.53;;;;;;;16.57;100.00;100255.83;5117731;57;1145414;-70
2022/06/08 05:12:27;;;;;;;25.57;19.10;;;;;;;16.60;100.00;100256.34;5076853;58;1145260;-70
2022/06/08 05:17:35;;;;;;;24.80;20.27;;;;;;;16.61;100.00;100251.84;5079036;58;1145238;-72
2022/06/08 05:22:44;;;;;;;24.67;18.50;;;;;;;16.56;100.00;100249.65;5081143;57;1145244;-72
2022/06/08 05:27:50;;;;;;;22.00;17.33;;;;;;;16.66;100.00;100252.19;5081202;58;1145047;-72
2022/06/08 05:32:57;;;;;;;31.40;22.13;;;;;;;16.67;100.00;100245.85;5106301;57;1145230;-73
2022/06/08 05:38:04;;;;;;;24.83;18.60;;;;;;;16.70;100.00;100253.04;5129569;57;1145462;-72
2022/06/08 05:43:13;;;;;;;22.03;15.73;;;;;;;16.68;100.00;100250.19;5106092;57;1145253;-72
2022/06/08 05:48:22;;;;;;;21.03;17.37;;;;;;;16.76;100.00;100256.40;5160551;57;1145315;-72
2022/06/08 05:53:28;;;;;;;21.40;18.33;;;;;;;16.84;100.00;100261.73;5197236;56;1143169;-72
2022/06/08 05:58:34;;;;;;;23.03;17.33;;;;;;;16.86;100.00;100250.39;5164254;56;1143204;-72
2022/06/08 06:03:40;;;;;;;20.17;16.87;;;;;;;16.90;100.00;100239.38;5151620;56;1143151;-72
2022/06/08 06:08:46;;;;;;;17.33;15.20;;;;;;;16.85;100.00;100237.20;5151708;56;1143140;-71
2022/06/08 06:13:54;;;;;;;19.10;16.53;;;;;;;16.99;100.00;100243.20;5150053;56;1143137;-72
2022/06/08 06:19:01;;;;;;;20.20;17.57;;;;;;;17.01;100.00;100239.04;5148725;56;1143145;-71
2022/06/08 06:24:09;;;;;;;22.17;16.97;;;;;;;17.09;100.00;100235.05;5079303;56;1143424;-71
2022/06/08 06:29:30;;;;;;;;;;;;;;;17.21;100.00;100228.34;4995538;58;1143226;-72
2022/06/08 06:34:44;;;;;;;17.80;16.00;;;;;;;17.44;100.00;100240.49;5010041;58;976343;-72
2022/06/08 06:39:51;;;;;;;23.77;19.23;;;;;;;17.57;100.00;100229.59;5227371;56;1141158;-72
2022/06/08 06:44:58;;;;;;;19.83;17.60;;;;;;;17.73;100.00;100237.28;5045946;58;1143197;-72
2022/06/08 06:50:16;;;;;;;19.20;15.77;;;;;;;17.77;100.00;100239.45;5226330;56;1141025;-72
2022/06/08 06:55:27;;;;;;;18.67;16.77;;;;;;;17.83;100.00;100237.43;5227509;56;1145480;-72
2022/06/08 07:00:35;;;;;;;17.17;15.35;;;;;;;17.92;100.00;100250.27;5227774;56;1145083;-72
2022/06/08 07:05:42;;;;;;;21.77;18.00;;;;;;;18.01;100.00;100244.39;5227248;56;1145391;-72
2022/06/08 07:11:32;;;;;;;20.63;16.20;;;;;;;17.93;100.00;100242.57;5046101;58;1145277;-72
2022/06/08 07:15:57;;;;;;;22.00;17.40;;;;;;;18.00;100.00;100238.20;5212005;56;1145392;-72
2022/06/08 07:21:04;;;;;;;18.48;15.20;;;;;;;18.17;100.00;100249.67;5153026;56;1145810;-72
2022/06/08 07:26:10;;;;;;;14.53;13.03;;;;;;;18.44;100.00;100243.84;5122934;56;1145563;-72
2022/06/08 07:31:15;;;;;;;15.70;14.10;;;;;;;18.66;100.00;100240.03;5166031;56;1145238;-72
2022/06/08 07:36:21;;;;;;;17.67;13.45;;;;;;;18.99;100.00;100232.08;5242229;56;1145425;-72
2022/06/08 07:41:27;;;;;;;13.53;12.13;;;;;;;19.20;100.00;100230.90;5242224;56;1145244;-72
2022/06/08 07:46:33;;;;;;;14.63;10.05;;;;;;;19.33;100.00;100229.77;5249657;56;1145412;-72
2022/06/08 07:51:38;;;;;;;15.45;11.08;;;;;;;19.62;100.00;100233.02;5250407;56;1145243;-73
2022/06/08 07:56:44;;;;;;;12.10;10.90;;;;;;;19.79;100.00;100235.52;5218494;56;1145519;-72
2022/06/08 08:01:52;;;;;;;10.08;9.05;;;;;;;19.80;100.00;100223.26;5175879;56;1145386;-72
2022/06/08 08:06:57;;;;;;;8.83;8.03;;;;;;;19.89;100.00;100219.45;5078552;58;1143289;-72
2022/06/08 08:12:06;;;;;;;11.30;10.20;;;;;;;19.95;100.00;100225.93;5076742;58;1141248;-72
2022/06/08 08:17:12;;;;;;;12.55;9.83;;;;;;;20.11;100.00;100224.89;5178289;56;1145162;-72
2022/06/08 08:22:20;;;;;;;8.60;7.65;;;;;;;20.25;100.00;100223.52;5160614;56;1143142;-72
2022/06/08 08:27:26;;;;;;;10.03;8.63;;;;;;;20.46;100.00;100228.14;5159843;56;1141260;-72
2022/06/08 08:32:31;;;;;;;8.08;6.85;;;;;;;20.66;99.81;100231.84;5186947;56;1143674;-72
2022/06/08 08:37:38;;;;;;;10.48;7.40;;;;;;;20.80;98.78;100234.66;5250174;56;1139069;-72
2022/06/08 08:42:44;;;;;;;5.80;5.30;;;;;;;21.01;99.19;100229.28;5160261;56;1141073;-72
2022/06/08 08:48:03;;;;;;;7.67;5.22;;;;;;;21.26;97.53;100235.09;5164434;57;1138968;-72
2022/06/08 08:53:26;;;;;;;6.22;5.65;;;;;;;21.35;96.12;100225.36;5163955;57;1139037;-72
2022/06/08 08:58:37;;;;;;;;;;;;;;;21.53;93.58;100218.14;5168198;57;1138898;-72
2022/06/08 09:03:51;;;;;;;5.40;4.92;;;;;;;21.67;94.64;100213.16;5082133;58;976608;-72
2022/06/08 09:09:02;;;;;;;8.42;5.88;;;;;;;21.81;92.41;100214.05;5083693;57;1136695;-72
2022/06/08 09:14:17;;;;;;;13.80;6.40;;;;;;;21.93;90.52;100208.92;5132047;57;1138967;-73
2022/06/08 09:19:30;;;;;;;5.33;4.85;;;;;;;22.08;90.88;100201.05;5121391;56;1139231;-72
2022/06/08 09:24:58;;;;;;;4.90;4.50;;;;;;;22.39;91.15;100203.22;5078390;58;1136917;-72
2022/06/08 09:30:20;;;;;;;4.80;4.28;;;;;;;22.48;84.51;100194.94;5151703;57;1137445;-72
2022/06/08 09:35:37;;;;;;;4.00;3.70;;;;;;;22.68;83.07;100192.59;5114493;57;1136919;-72
2022/06/08 09:40:59;;;;;;;4.87;3.30;;;;;;;22.88;83.19;100192.66;5164186;57;1135069;-72
2022/06/08 09:46:21;;;;;;;2.98;2.80;;;;;;;22.95;78.75;100184.03;5233896;56;1138961;-72
2022/06/08 09:52:07;;;;;;;6.42;2.80;;;;;;;23.03;75.75;100178.45;5250821;56;1138995;-72
2022/06/08 09:57:41;;;;;;;2.75;2.52;;;;;;;23.05;73.50;100175.02;5127619;56;1138952;-72
2022/06/08 10:02:52;;;;;;;8.28;2.98;;;;;;;23.03;71.10;100173.56;5048685;58;1139156;-72
2022/06/08 10:08:24;;;;;;;3.40;3.10;;;;;;;22.91;74.89;100171.19;5228807;56;1138975;-73
2022/06/08 10:13:42;;;;;;;4.85;3.45;;;;;;;23.03;74.43;100163.61;5189286;56;1139175;-72
2022/06/08 10:19:00;;;;;;;4.65;3.37;;;;;;;23.02;74.13;100165.99;5243502;56;1138965;-72
2022/06/08 10:24:27;;;;;;;3.62;3.42;;;;;;;23.11;70.72;100166.08;5228725;56;1139034;-72
2022/06/08 10:29:52;;;;;;;3.25;2.95;;;;;;;23.18;74.57;100155.29;5228835;56;1137160;-72
2022/06/08 10:34:58;;;;;;;6.42;3.42;;;;;;;23.25;72.05;100160.14;4986236;59;1137054;-72
2022/06/08 10:40:12;;;;;;;2.95;2.75;;;;;;;23.26;69.50;100162.32;4991722;58;1137067;-72
2022/06/08 10:45:37;;;;;;;7.95;2.75;;;;;;;23.32;70.85;100165.55;4991682;58;1137153;-72
2022/06/08 10:50:48;;;;;;;5.67;3.60;;;;;;;23.45;69.37;100164.99;4981250;59;1137144;-72
2022/06/08 10:55:55;;;;;;;4.30;2.58;;;;;;;23.57;68.30;100169.24;4981209;59;1137074;-73
2022/06/08 11:01:05;;;;;;;5.28;3.05;;;;;;;23.67;69.38;100169.65;4922872;59;1135072;-73
2022/06/08 11:06:16;;;;;;;3.40;3.08;;;;;;;23.87;69.42;100166.85;4898932;59;1139031;-74
2022/06/08 11:11:49;;;;;;;7.90;2.90;;;;;;;23.97;69.75;100159.66;5064878;56;1138980;-73
2022/06/08 11:16:57;;;;;;;3.50;3.20;;;;;;;24.03;69.38;100156.91;5065831;58;1139226;-72
2022/06/08 11:22:12;;;;;;;4.45;2.92;;;;;;;24.12;69.13;100155.64;5020245;58;1139073;-72
2022/06/08 11:27:33;;;;;;;5.08;2.85;;;;;;;24.15;70.54;100145.72;5061371;58;1138986;-72
2022/06/08 11:32:44;;;;;;;4.37;3.05;;;;;;;24.27;65.74;100149.14;5062801;57;1139191;-73
2022/06/08 11:38:36;;;;;;;5.47;3.00;;;;;;;24.25;65.62;100150.71;5062011;57;1138994;-72
2022/06/08 11:43:43;;;;;;;3.30;3.00;;;;;;;24.33;66.96;100145.03;5104415;57;1139011;-73
2022/06/08 11:48:49;;;;;;;5.17;2.77;;;;;;;24.58;66.63;100140.20;5161521;57;1139325;-73
2022/06/08 11:53:58;;;;;;;4.08;2.67;;;;;;;24.73;64.65;100136.66;5161537;57;1138964;-73
2022/06/08 11:59:09;;;;;;;4.22;2.75;;;;;;;24.84;62.77;100142.17;5161357;56;1139025;-72
2022/06/08 12:04:25;;;;;;;5.00;2.93;;;;;;;24.99;62.70;100138.33;5161231;57;1139363;-73
2022/06/08 12:09:34;;;;;;;4.28;3.27;;;;;;;25.08;64.50;100131.57;5134939;56;1138934;-72
2022/06/08 12:14:41;;;;;;;3.70;2.80;;;;;;;24.97;63.25;100118.78;5218766;56;1139009;-72
2022/06/08 12:19:58;;;;;;;3.95;3.37;;;;;;;25.00;64.85;100111.58;5191842;56;1136904;-73
2022/06/08 12:25:21;;;;;;;8.00;3.05;;;;;;;25.18;63.63;100104.31;5139155;57;1136882;-72
2022/06/08 12:30:33;;;;;;;3.98;2.58;;;;;;;25.28;61.45;100097.55;5114417;57;1136950;-72
2022/06/08 12:35:40;;;;;;;;;;;;;;;25.38;61.85;100092.42;5126334;57;1137025;-69
2022/06/08 12:41:16;;;;;;;5.25;2.45;;;;;;;25.64;63.40;100092.68;5161900;57;974452;-70
2022/06/08 12:46:34;;;;;;;2.35;2.20;;;;;;;25.62;63.64;100084.78;5237747;56;1132770;-73
2022/06/08 12:51:58;;;;;;;2.60;2.40;;;;;;;25.73;60.52;100088.06;5250292;56;1139197;-72
2022/06/08 12:57:14;;;;;;;5.03;2.47;;;;;;;25.76;59.74;100081.37;5249878;56;1138987;-72
2022/06/08 13:02:24;;;;;;;8.75;2.02;;;;;;;25.86;59.07;100067.56;5230771;56;1139008;-70
2022/06/08 13:07:33;;;;;;;3.05;2.20;;;;;;;26.00;58.96;100066.84;5163033;56;1138957;-70
2022/06/08 13:12:42;;;;;;;5.25;3.10;;;;;;;26.04;58.81;100062.62;5163209;56;1138953;-73
2022/06/08 13:17:48;;;;;;;2.95;2.62;;;;;;;26.12;59.08;100067.73;5170525;56;1138961;-73
2022/06/08 13:22:57;;;;;;;6.60;2.33;;;;;;;26.03;57.58;100062.86;5249737;56;1138953;-73
2022/06/08 13:28:15;;;;;;;4.37;2.35;;;;;;;25.76;58.08;100056.98;5249596;56;1138999;-73
2022/06/08 13:38:51;;;;;;;3.65;2.27;;;;;;;25.53;58.62;100048.18;5249239;56;1139193;-74
2022/06/08 13:43:57;;;;;;;3.22;2.45;;;;;;;25.38;57.61;100048.58;5204333;56;1139226;-72
2022/06/08 13:49:03;;;;;;;5.67;2.05;;;;;;;25.36;58.72;100047.97;5141389;57;1139238;-73
2022/06/08 13:54:22;;;;;;;2.33;2.08;;;;;;;25.59;58.02;100035.09;5132470;57;1139287;-73
2022/06/08 13:59:29;;;;;;;4.28;2.20;;;;;;;25.68;56.34;100038.33;5159101;57;1138992;-73
2022/06/08 14:04:35;;;;;;;3.67;1.90;;;;;;;25.66;57.24;100039.11;5160479;57;1139048;-72
2022/06/08 14:15:08;;;;;;;3.80;1.90;;;;;;;25.57;56.74;100031.25;5073999;57;1139209;-75
2022/06/08 14:20:27;;;;;;;3.15;2.00;;;;;;;25.46;55.80;100033.92;5122175;57;1136999;-72
2022/06/08 14:25:34;;;;;;;3.33;2.17;;;;;;;25.55;57.32;100024.41;5155479;57;1136860;-72
2022/06/08 14:30:44;;;;;;;3.90;1.40;;;;;;;25.76;56.31;100027.19;5226180;56;1137044;-73
2022/06/08 14:35:54;;;;;;;5.72;1.52;;;;;;;25.87;55.14;100025.88;5247352;56;1136858;-72
2022/06/08 14:41:02;;;;;;;6.22;1.77;;;;;;;25.86;54.68;100027.45;5243441;56;1136812;-70
2022/06/08 14:46:16;;;;;;;2.08;1.35;;;;;;;26.02;54.85;100015.95;5106908;56;1136971;-73
2022/06/08 14:51:22;;;;;;;1.75;1.37;;;;;;;26.11;53.59;100013.23;5075593;57;1136919;-72
2022/06/08 14:56:29;;;;;;;1.17;1.10;;;;;;;26.12;50.80;100009.98;5110136;57;1137054;-75
2022/06/08 15:01:35;;;;;;;1.15;1.10;;;;;;;26.07;50.72;100005.78;5149123;57;1137077;-72
2022/06/08 15:06:45;;;;;;;1.37;1.02;;;;;;;26.12;48.91;99994.55;5149297;57;1136834;-73
2022/06/08 15:12:00;;;;;;;1.98;1.87;;;;;;;26.11;49.06;99991.54;5171790;56;1132706;-73
2022/06/08 15:17:16;;;;;;;1.70;1.60;;;;;;;26.14;47.79;99989.70;5149323;57;1136911;-73
2022/06/08 15:22:26;;;;;;;3.12;1.10;;;;;;;26.16;48.14;99972.67;5149488;57;1136970;-72
2022/06/08 15:27:37;;;;;;;1.42;1.32;;;;;;;26.08;48.68;99968.97;5149074;57;1137109;-72
2022/06/08 15:32:43;;;;;;;1.20;1.20;;;;;;;26.10;47.97;99970.09;5149544;57;1136901;-72
2022/06/08 15:37:52;;;;;;;3.95;1.80;;;;;;;26.03;48.33;99970.71;5149188;57;1137048;-72
2022/06/08 15:42:59;;;;;;;1.12;1.12;;;;;;;25.95;49.49;99962.41;5172319;56;1137284;-72
2022/06/08 15:48:09;;;;;;;2.25;2.10;;;;;;;25.95;49.56;99968.35;5251491;56;1136941;-75
2022/06/08 15:53:22;;;;;;;2.67;1.60;;;;;;;25.92;49.41;99965.58;5194618;56;1136925;-73
2022/06/08 15:58:30;;;;;;;5.78;1.60;;;;;;;25.95;49.45;99970.53;5219927;56;1137223;-72
2022/06/08 16:03:36;;;;;;;4.47;2.25;;;;;;;26.00;49.40;99971.17;5242253;56;1136238;-73
2022/06/08 16:08:43;;;;;;;5.95;2.58;;;;;;;25.90;48.58;99968.52;5242297;56;1137013;-71
2022/06/08 16:13:49;;;;;;;2.50;1.40;;;;;;;25.89;48.56;99964.16;5210910;56;1136906;-72
2022/06/08 16:18:58;;;;;;;3.60;1.42;;;;;;;25.89;48.39;99967.39;5223788;56;1137120;-72
2022/06/08 16:24:05;;;;;;;12.23;9.68;;;;;;;25.98;48.21;99966.51;5242363;56;1136905;-73
2022/06/08 16:29:10;;;;;;;7.70;2.10;;;;;;;26.01;46.68;99964.17;5242280;56;1139086;-72
2022/06/08 16:34:16;;;;;;;4.83;4.42;;;;;;;25.96;47.68;99969.48;5209816;56;1137167;-74
2022/06/08 16:39:24;;;;;;;2.15;1.98;;;;;;;25.84;48.80;99962.66;5164780;57;1136899;-73
2022/06/08 16:44:29;;;;;;;2.40;1.80;;;;;;;25.85;50.16;99959.42;5204627;56;1136943;-72
2022/06/08 16:49:36;;;;;;;4.40;1.32;;;;;;;25.82;49.24;99955.81;5198502;56;1136857;-71
2022/06/08 16:54:44;;;;;;;6.08;1.80;;;;;;;25.77;49.08;99955.17;5164658;57;1137124;-72
2022/06/08 16:59:53;;;;;;;2.00;1.90;;;;;;;25.78;49.58;99957.36;5164670;57;1136903;-72
2022/06/08 17:04:57;;;;;;;2.80;2.35;;;;;;;25.69;47.95;99953.31;5164687;57;1137017;-73
2022/06/08 17:10:04;;;;;;;2.80;2.60;;;;;;;25.62;48.18;99955.30;5164726;57;1136903;-72
2022/06/08 17:15:14;;;;;;;3.58;2.90;;;;;;;25.47;49.88;99958.41;5131910;57;1137009;-72
2022/06/08 17:20:24;;;;;;;4.67;2.55;;;;;;;25.42;50.28;99957.73;5217201;56;1136830;-72
2022/06/08 17:25:29;;;;;;;12.10;2.58;;;;;;;25.35;50.23;99952.95;5251982;56;1136908;-73
2022/06/08 17:30:37;;;;;;;2.45;2.25;;;;;;;25.28;51.09;99956.25;5252123;56;1139179;-73
2022/06/08 17:35:42;;;;;;;6.87;2.60;;;;;;;25.25;51.75;99952.64;5252153;56;1136969;-72
2022/06/08 17:40:50;;;;;;;4.87;2.17;;;;;;;25.22;51.46;99963.39;5252163;56;1136861;-72
2022/06/08 17:45:56;;;;;;;8.83;4.17;;;;;;;25.10;50.84;99951.69;5187585;56;1134126;-71
2022/06/08 17:51:03;;;;;;;2.72;2.08;;;;;;;25.02;51.94;99959.30;5240225;56;1134836;-72
2022/06/08 17:56:09;;;;;;;5.35;2.00;;;;;;;24.97;51.94;99955.09;5219695;56;1134799;-72
2022/06/08 18:01:18;;;;;;;8.83;2.42;;;;;;;24.87;52.38;99959.66;5160612;57;1134950;-72
2022/06/08 18:06:30;;;;;;;8.38;7.47;;;;;;;24.73;51.81;99956.27;5160820;57;1134493;-73
2022/06/08 18:17:03;;;;;;;3.72;2.17;;;;;;;24.38;52.03;99954.65;5175819;56;1134922;-73
2022/06/08 18:22:10;;;;;;;6.67;1.98;;;;;;;24.31;52.33;99943.58;5126872;57;1135045;-72
2022/06/08 18:27:32;;;;;;;3.56;2.62;;;;;;;24.23;52.92;99947.90;5158882;57;1134728;-72
2022/06/08 18:32:38;;;;;;;4.60;2.50;;;;;;;24.17;53.13;99947.73;5159350;57;1132682;-72
2022/06/08 18:37:51;;;;;;;2.15;1.77;;;;;;;24.14;53.35;99958.97;5158886;57;1136851;-72
2022/06/08 18:43:01;;;;;;;2.30;1.47;;;;;;;24.08;53.26;99953.64;5174744;56;1136869;-72
2022/06/08 18:48:07;;;;;;;8.38;1.77;;;;;;;23.98;52.83;99958.20;5148098;57;1136816;-72
2022/06/08 18:53:13;;;;;;;2.40;1.50;;;;;;;23.80;52.39;99956.25;5125921;57;1137291;-73
2022/06/08 18:58:27;;;;;;;4.58;1.52;;;;;;;23.63;52.71;99959.69;5177570;56;1136879;-73
2022/06/08 19:03:33;;;;;;;3.58;1.17;;;;;;;23.51;52.73;99950.11;5166249;56;1136924;-72
2022/06/08 19:08:39;;;;;;;2.67;1.32;;;;;;;23.36;52.57;99958.46;5172057;56;1136888;-72
2022/06/08 19:13:48;;;;;;;2.40;1.30;;;;;;;23.18;52.51;99958.34;5160121;57;1136832;-73
2022/06/08 19:24:19;;;;;;;3.70;1.60;;;;;;;22.93;53.27;99971.70;5160595;57;1136847;-73
2022/06/08 19:29:25;;;;;;;3.37;1.67;;;;;;;22.82;53.13;99980.45;5160535;57;1136921;-73
2022/06/08 19:34:31;;;;;;;4.45;1.92;;;;;;;22.68;53.54;99989.58;5160160;57;1137032;-73
2022/06/08 19:39:37;;;;;;;4.10;2.37;;;;;;;22.59;54.19;99997.59;5210862;56;1137218;-73
2022/06/08 19:44:42;;;;;;;3.87;3.12;;;;;;;22.58;54.86;100000.80;5229199;56;1136907;-73
2022/06/08 19:49:48;;;;;;;4.28;3.00;;;;;;;22.62;55.56;100011.97;5213534;56;1138936;-73
2022/06/08 19:54:54;;;;;;;7.08;3.27;;;;;;;22.62;55.76;100016.02;5182835;56;1139135;-72
2022/06/08 20:00:01;;;;;;;6.42;2.75;;;;;;;22.59;56.01;100020.50;5158233;56;1138884;-73
2022/06/08 20:05:09;;;;;;;4.10;3.30;;;;;;;22.43;56.19;100025.28;5164709;56;1139209;-73
2022/06/08 20:10:16;;;;;;;7.03;4.03;;;;;;;22.34;56.79;100028.37;5173314;56;1139256;-72
2022/06/08 20:15:24;;;;;;;5.45;3.58;;;;;;;22.24;57.35;100034.18;5169533;56;1139013;-73
2022/06/08 20:20:36;;;;;;;6.70;3.40;;;;;;;22.19;57.97;100033.95;5178490;56;1138968;-74
2022/06/08 20:25:42;;;;;;;15.85;3.77;;;;;;;22.13;58.58;100030.77;5179531;56;1139595;-73
2022/06/08 20:30:52;;;;;;;5.08;3.95;;;;;;;22.10;59.20;100029.81;5158030;56;1141166;-73
2022/06/08 20:35:58;;;;;;;18.27;4.22;;;;;;;22.08;59.57;100032.71;5180113;56;1138989;-73
2022/06/08 20:41:04;;;;;;;7.40;4.40;;;;;;;22.04;60.04;100037.36;5180853;56;1141224;-73
2022/06/08 20:46:10;;;;;;;6.12;4.53;;;;;;;21.94;60.46;100039.59;5179843;56;1139140;-72
2022/06/08 20:51:17;;;;;;;5.97;4.70;;;;;;;21.85;61.05;100032.21;5228428;56;1139337;-72
2022/06/08 20:56:24;;;;;;;16.62;5.53;;;;;;;21.78;61.49;100034.08;5196522;56;1139124;-73
2022/06/08 21:01:34;;;;;;;10.60;6.05;;;;;;;21.72;62.07;100037.05;5141745;57;1138975;-72
2022/06/08 21:06:44;;;;;;;11.05;5.40;;;;;;;21.62;62.49;100031.23;5141915;57;1138956;-74
2022/06/08 21:11:52;;;;;;;12.33;7.85;;;;;;;21.53;63.09;100028.94;5160088;56;1138924;-72
2022/06/08 21:16:59;;;;;;;11.95;7.20;;;;;;;21.43;63.66;100024.43;5176262;56;1139004;-73
2022/06/08 21:22:09;;;;;;;17.42;7.62;;;;;;;21.34;64.30;100019.75;5196080;56;1138911;-73
2022/06/08 21:27:16;;;;;;;9.10;8.18;;;;;;;21.23;64.81;100027.89;5184365;56;1139236;-72
2022/06/08 21:32:22;;;;;;;8.70;7.85;;;;;;;21.15;65.53;100025.32;5009391;58;1137087;-72
2022/06/08 21:37:28;;;;;;;8.18;7.30;;;;;;;20.98;66.22;100018.61;5141747;57;1137085;-72
2022/06/08 21:42:35;;;;;;;8.05;6.92;;;;;;;20.81;66.85;100019.44;5149731;56;1136932;-72
2022/06/08 21:47:41;;;;;;;10.88;7.62;;;;;;;20.69;67.78;100028.56;5222236;56;1136870;-72
2022/06/08 21:52:47;;;;;;;14.00;8.15;;;;;;;20.54;68.87;100029.69;5215032;56;1139024;-72
2022/06/08 21:57:57;;;;;;;9.05;8.15;;;;;;;20.41;69.84;100029.59;5110078;56;1138938;-72
2022/06/08 22:03:04;;;;;;;9.55;8.50;;;;;;;20.26;70.11;100029.14;5076760;58;1136947;-73
2022/06/08 22:08:12;;;;;;;14.10;9.53;;;;;;;20.22;70.54;100027.02;5043121;58;1136981;-73
2022/06/08 22:13:21;;;;;;;12.55;9.18;;;;;;;20.22;71.00;100015.77;5149921;57;1137050;-73
2022/06/08 22:18:30;;;;;;;14.28;8.60;;;;;;;20.24;71.11;100015.58;5188413;56;1141343;-73
2022/06/08 22:23:38;;;;;;;10.77;8.83;;;;;;;20.26;71.18;100007.66;5092626;57;1141065;-72
2022/06/08 22:28:44;;;;;;;14.40;8.90;;;;;;;20.25;71.11;100010.53;5125115;57;1141240;-73
2022/06/08 22:33:51;;;;;;;10.98;8.60;;;;;;;20.20;71.34;100006.23;5124902;57;1141133;-73
2022/06/08 22:38:57;;;;;;;15.15;9.05;;;;;;;20.13;71.74;100007.55;5124960;57;1141197;-72
2022/06/08 22:44:03;;;;;;;9.65;8.65;;;;;;;20.10;71.91;100004.41;5154452;56;1141076;-72
2022/06/08 22:49:09;;;;;;;15.40;8.85;;;;;;;20.06;71.93;100000.44;5163275;56;1138933;-73
2022/06/08 22:54:16;;;;;;;10.68;8.75;;;;;;;19.97;72.42;99993.87;5227474;56;1141290;-72
2022/06/08 22:59:21;;;;;;;15.95;9.10;;;;;;;19.95;73.01;99994.58;5228591;56;1138957;-72
2022/06/08 23:04:27;;;;;;;15.43;9.65;;;;;;;19.89;73.07;99987.28;5228647;56;1139023;-72
2022/06/08 23:09:33;;;;;;;11.28;10.08;;;;;;;19.84;73.39;99990.23;5228653;56;1138969;-72
2022/06/08 23:14:39;;;;;;;12.40;10.15;;;;;;;19.76;73.57;99980.95;5228470;56;1141072;-73
2022/06/08 23:25:09;;;;;;;11.68;10.25;;;;;;;19.69;74.47;99979.56;5143628;57;1141092;-72
2022/06/08 23:30:14;;;;;;;11.65;10.50;;;;;;;19.66;74.74;99980.77;5123237;57;1141103;-72
2022/06/08 23:35:21;;;;;;;14.30;11.05;;;;;;;19.66;74.95;99975.91;5025787;58;1141143;-72
2022/06/08 23:40:27;;;;;;;10.95;9.80;;;;;;;19.57;74.88;99977.87;5065436;58;1141028;-72
2022/06/08 23:45:34;;;;;;;10.43;9.40;;;;;;;19.30;74.55;99980.75;5123192;57;1139124;-72